Ledegem, Belgium
Current Conditions -  °F | °C
As of 5:30 PM on Tuesday 21 Oct 2014 (Local Time) from LFQQ Reporting Station
Few Clouds Few Clouds  
Wind Chill: 54°   Ceiling: Unl
Heat Index: 54°   Visibility: 6mi
Dew Point: 41°   Wind: 18mph
Humidity: 62%   Direction: 290°WNW
Pressure: 29.74"   Gusts: NA
Location:  50.86°N, 3.12°E
Report Text: LFQQ 211530Z 29016KT 9999 FEW030CB 12/05 Q1007 TEMPO29030G50KT
Loading
Personal Weather Stations






























Interactive Weather Map
Tropical Storm Tracking
New forecast layout! Learn more

10-Day Weather Forecast

Advertisements
Track Severe Weather on mobile